logo
Search for airport 
image banner adimage banner adimage banner ad
image banner ad

MMCHC - Chiconcuac

Located in Xochitepec, Mexico

ICAO - , IATA -

Data provided by Airmate  

General information

Coordinates: N18°46'33" W99°12'51"
Elevation is 3799 feet MSL.
Magnetic variation is 3° East
View others Airports in Moreloa

Operational data

Special qualification required
Current time UTC:
Current local time:
METAR: MMCB 161910Z RTD 26002KT 8SM BKN025 28/17 A3016 RMK 8/800 AC CI DSNT MDT CU FRMG TCU 4TH QUAD SE NE FRMG CB NW PCPN NW
TAF: TAF COR MMCB 161811Z 1618/1718 20010KT P6SM BKN025 FM162200 20010KT P6SM BKN020CB TEMPO 1622/1702 3SM TSRA OVC015CB FM170400 00000KT 6SM HZ SCT015 BKN080 FM171500 00000KT 5SM HZ SCT020
View NOTAMs / SUP AIP / TFR affecting this airport [VIEW]
Communications frequencies: [VIEW]

Runways:

RWY identifierQFULength (ft)Width (ft)SurfaceLDA (ft)
28289°230038ASPH
10109°230038ASPH

Airport contact information

Address: Xochitepec Mexico

Satellite view of MMCHC